createdAt,value
2017-08-10T00:02:16.191Z,24.20
2017-08-10T00:04:42.921Z,22.83
2017-08-10T00:07:09.645Z,24.70
2017-08-10T00:09:36.407Z,23.13
2017-08-10T00:12:03.140Z,33.77
2017-08-10T00:14:29.872Z,23.23
2017-08-10T00:16:56.600Z,24.57
2017-08-10T00:19:23.329Z,23.10
2017-08-10T00:21:50.070Z,24.57
2017-08-10T00:24:16.849Z,25.23
2017-08-10T00:26:43.567Z,25.80
2017-08-10T00:29:10.291Z,24.37
2017-08-10T00:31:37.038Z,24.90
2017-08-10T00:34:03.764Z,25.87
2017-08-10T00:36:30.512Z,25.77
2017-08-10T00:38:57.246Z,24.37
2017-08-10T00:41:23.998Z,24.13
2017-08-10T00:43:50.734Z,25.30
2017-08-10T00:46:17.480Z,23.20
2017-08-10T00:48:44.216Z,25.77
2017-08-10T00:51:10.962Z,27.03
2017-08-10T00:53:37.707Z,24.97
2017-08-10T00:56:04.444Z,23.07
2017-08-10T00:58:31.156Z,24.23
2017-08-10T01:00:57.899Z,28.83
2017-08-10T01:03:24.669Z,24.00
2017-08-10T01:05:51.410Z,24.73
2017-08-10T01:08:18.150Z,24.30
2017-08-10T01:10:44.865Z,24.73
2017-08-10T01:13:11.593Z,25.37
2017-08-10T01:15:38.322Z,25.90
2017-08-10T01:18:05.066Z,24.37
2017-08-10T01:20:31.789Z,27.23
2017-08-10T01:22:58.563Z,26.30
2017-08-10T01:25:25.295Z,24.90
2017-08-10T01:27:52.034Z,27.07
2017-08-10T01:30:18.775Z,25.83
2017-08-10T01:32:45.520Z,27.47
2017-08-10T01:35:12.265Z,25.20
2017-08-10T01:37:39.004Z,26.47
2017-08-10T01:40:05.739Z,25.63
2017-08-10T01:42:32.491Z,25.97
2017-08-10T01:44:59.216Z,26.97
2017-08-10T01:47:25.977Z,27.33
2017-08-10T01:49:52.704Z,28.03
2017-08-10T01:52:19.463Z,25.10
2017-08-10T01:54:46.204Z,28.17
2017-08-10T01:57:12.948Z,27.27
2017-08-10T01:59:39.693Z,26.10
2017-08-10T02:02:06.437Z,25.90
2017-08-10T02:04:33.190Z,28.60
2017-08-10T02:06:59.956Z,24.93
2017-08-10T02:09:26.719Z,27.27
2017-08-10T02:11:53.448Z,29.60
2017-08-10T02:14:20.187Z,24.90
2017-08-10T02:16:46.926Z,26.90
2017-08-10T02:19:13.670Z,26.50
2017-08-10T02:21:40.433Z,26.13
2017-08-10T02:24:07.163Z,28.97
2017-08-10T02:26:33.884Z,28.10
2017-08-10T02:29:00.605Z,28.33
2017-08-10T02:31:27.346Z,24.33
2017-08-10T02:33:54.098Z,24.80
2017-08-10T02:36:20.846Z,25.90
2017-08-10T02:38:47.579Z,27.53
2017-08-10T02:41:14.322Z,24.83
2017-08-10T02:43:41.060Z,27.07
2017-08-10T02:46:07.792Z,27.40
2017-08-10T02:48:34.509Z,26.27
2017-08-10T02:51:01.242Z,25.17
2017-08-10T02:53:27.967Z,23.80
2017-08-10T02:55:54.698Z,25.10
2017-08-10T02:58:21.463Z,24.77
2017-08-10T03:00:48.190Z,26.50
2017-08-10T03:03:14.943Z,25.33
2017-08-10T03:05:41.684Z,24.80
2017-08-10T03:08:08.425Z,23.27
2017-08-10T03:10:35.145Z,25.70
2017-08-10T03:13:01.919Z,26.20
2017-08-10T03:15:28.651Z,24.43
2017-08-10T03:17:55.385Z,25.97
2017-08-10T03:20:22.109Z,25.03
2017-08-10T03:22:54.824Z,26.30
2017-08-10T03:25:21.575Z,27.33
2017-08-10T03:27:48.356Z,25.33
2017-08-10T03:30:15.093Z,27.63
2017-08-10T03:32:41.816Z,25.33
2017-08-10T03:35:08.546Z,24.10
2017-08-10T03:37:35.277Z,29.23
2017-08-10T03:40:02.014Z,24.67
2017-08-10T03:42:28.755Z,25.73
2017-08-10T03:44:55.507Z,24.20
2017-08-10T03:47:22.233Z,25.00
2017-08-10T03:49:48.991Z,24.13
2017-08-10T03:52:15.727Z,20.60
2017-08-10T03:54:42.476Z,22.30
2017-08-10T03:57:09.219Z,22.87
2017-08-10T03:59:35.945Z,21.63
2017-08-10T04:02:02.679Z,23.87
2017-08-10T04:04:29.408Z,22.70
2017-08-10T04:06:56.149Z,23.83
2017-08-10T04:09:22.889Z,23.90
2017-08-10T04:11:49.633Z,22.90
2017-08-10T04:14:16.366Z,22.47
2017-08-10T04:16:43.101Z,22.27
2017-08-10T04:19:09.863Z,26.43
2017-08-10T04:21:36.589Z,24.43
2017-08-10T04:24:03.321Z,29.10
2017-08-10T04:26:30.072Z,22.10
2017-08-10T04:28:56.804Z,21.03
2017-08-10T04:31:23.548Z,23.73
2017-08-10T04:33:50.284Z,20.23
2017-08-10T04:36:17.006Z,29.50
2017-08-10T04:38:43.740Z,20.37
2017-08-10T04:41:10.480Z,21.73
2017-08-10T04:43:37.232Z,24.17
2017-08-10T04:46:03.958Z,24.93
2017-08-10T04:48:30.708Z,23.47
2017-08-10T04:50:57.439Z,25.27
2017-08-10T04:53:24.200Z,22.90
2017-08-10T04:55:50.933Z,23.23
2017-08-10T04:58:17.681Z,22.60
2017-08-10T05:00:44.422Z,23.03
2017-08-10T05:03:11.180Z,23.40
2017-08-10T05:05:37.929Z,23.70
2017-08-10T05:08:05.491Z,22.53
2017-08-10T05:10:32.223Z,23.13
2017-08-10T05:12:58.951Z,24.43
2017-08-10T05:15:25.706Z,23.80
2017-08-10T05:17:52.465Z,23.73
2017-08-10T05:20:19.203Z,21.47
2017-08-10T05:22:45.927Z,21.37
2017-08-10T05:25:12.647Z,21.47
2017-08-10T05:27:39.404Z,20.37
2017-08-10T05:30:06.140Z,21.13
2017-08-10T05:32:32.886Z,22.20
2017-08-10T05:34:59.632Z,23.33
2017-08-10T05:37:26.354Z,26.70
2017-08-10T05:39:53.373Z,22.60
2017-08-10T05:42:20.094Z,20.80
2017-08-10T05:44:46.857Z,22.83
2017-08-10T05:47:13.595Z,22.40
2017-08-10T05:49:40.392Z,22.93
2017-08-10T05:52:07.122Z,23.67
2017-08-10T05:54:33.856Z,21.23
2017-08-10T05:57:00.578Z,20.57
2017-08-10T05:59:27.317Z,20.90
2017-08-10T06:01:54.047Z,19.23
2017-08-10T06:04:20.780Z,21.60
2017-08-10T06:06:47.525Z,21.43
2017-08-10T06:09:14.318Z,21.13
2017-08-10T06:11:41.032Z,21.77
2017-08-10T06:14:07.766Z,21.47
2017-08-10T06:16:34.503Z,19.70
2017-08-10T06:19:01.243Z,19.53
2017-08-10T06:21:27.974Z,21.07
2017-08-10T06:23:54.722Z,19.50
2017-08-10T06:26:21.454Z,19.03
2017-08-10T06:28:48.192Z,19.10
2017-08-10T06:31:14.946Z,17.43
2017-08-10T06:33:41.671Z,17.33
2017-08-10T06:36:08.434Z,15.63
2017-08-10T06:38:35.180Z,17.07
2017-08-10T06:41:01.919Z,14.60
2017-08-10T06:43:28.657Z,14.73
2017-08-10T06:45:55.392Z,15.83
2017-08-10T06:48:22.133Z,14.07
2017-08-10T06:50:48.882Z,14.10
2017-08-10T06:53:15.644Z,14.13
2017-08-10T06:55:42.366Z,17.13
2017-08-10T06:58:09.114Z,13.47
2017-08-10T07:00:35.849Z,13.43
2017-08-10T07:03:02.575Z,13.50
2017-08-10T07:05:29.325Z,13.73
2017-08-10T07:07:56.068Z,14.73
2017-08-10T07:10:22.865Z,13.50
2017-08-10T07:12:49.621Z,15.30
2017-08-10T07:15:16.349Z,12.43
2017-08-10T07:17:43.106Z,13.10
2017-08-10T07:20:09.831Z,12.77
2017-08-10T07:22:36.586Z,12.80
2017-08-10T07:25:03.319Z,13.13
2017-08-10T07:27:30.075Z,12.87
2017-08-10T07:29:56.794Z,12.90
2017-08-10T07:32:23.515Z,13.77
2017-08-10T07:34:50.239Z,14.17
2017-08-10T07:37:16.954Z,14.93
2017-08-10T07:39:43.697Z,16.20
2017-08-10T07:42:10.441Z,14.13
2017-08-10T07:44:37.189Z,15.60
2017-08-10T07:47:03.906Z,14.70
2017-08-10T07:49:30.621Z,18.77
2017-08-10T07:51:57.342Z,15.67
2017-08-10T07:54:24.073Z,15.50
2017-08-10T07:56:50.795Z,15.50
2017-08-10T07:59:17.525Z,17.00
2017-08-10T08:01:44.266Z,16.87
2017-08-10T08:04:10.981Z,17.53
2017-08-10T08:06:37.704Z,14.83
2017-08-10T08:09:04.442Z,16.23
2017-08-10T08:11:31.215Z,16.67
2017-08-10T08:13:57.930Z,15.30
2017-08-10T08:16:24.694Z,15.47
2017-08-10T08:18:51.410Z,19.20
2017-08-10T08:21:18.133Z,15.23
2017-08-10T08:23:44.865Z,14.13
2017-08-10T08:26:11.607Z,17.47
2017-08-10T08:28:38.323Z,15.50
2017-08-10T08:31:05.055Z,13.23
2017-08-10T08:33:31.774Z,12.80
2017-08-10T08:35:58.523Z,16.00
2017-08-10T08:38:25.245Z,12.63
2017-08-10T08:40:51.957Z,12.93
2017-08-10T08:43:18.681Z,15.83
2017-08-10T08:45:45.402Z,12.30
2017-08-10T08:48:12.134Z,12.73
2017-08-10T08:50:38.872Z,14.10
2017-08-10T08:53:05.598Z,13.53
2017-08-10T08:55:32.352Z,12.67
2017-08-10T08:57:59.075Z,12.70
2017-08-10T09:00:25.785Z,11.83
2017-08-10T09:02:52.529Z,10.40
2017-08-10T09:05:19.242Z,11.00
2017-08-10T09:07:45.966Z,10.67
2017-08-10T09:10:12.716Z,11.30
2017-08-10T09:12:39.434Z,10.70
2017-08-10T09:15:06.141Z,14.60
2017-08-10T09:17:32.886Z,9.57
2017-08-10T09:19:59.593Z,9.90
2017-08-10T09:22:26.297Z,11.87
2017-08-10T09:24:53.036Z,10.87
2017-08-10T09:27:19.748Z,9.33
2017-08-10T09:29:46.463Z,10.53
2017-08-10T09:32:13.197Z,11.37
2017-08-10T09:34:39.948Z,13.30
2017-08-10T09:37:06.675Z,10.03
2017-08-10T09:39:33.390Z,12.77
2017-08-10T09:42:00.122Z,13.30
2017-08-10T09:44:26.835Z,10.23
2017-08-10T09:46:53.557Z,10.87
2017-08-10T09:49:20.271Z,9.80
2017-08-10T09:51:47.033Z,8.47
2017-08-10T09:54:13.761Z,11.47
2017-08-10T09:56:40.512Z,8.23
2017-08-10T09:59:07.274Z,7.77
2017-08-10T10:01:33.992Z,10.63
2017-08-10T10:04:00.712Z,12.03
2017-08-10T10:06:27.443Z,8.30
2017-08-10T10:08:54.236Z,9.00
2017-08-10T10:11:20.949Z,11.47
2017-08-10T10:13:47.676Z,12.23
2017-08-10T10:16:14.415Z,10.87
2017-08-10T10:18:41.138Z,9.97
2017-08-10T10:21:07.933Z,13.80
2017-08-10T10:23:34.663Z,12.83
2017-08-10T10:26:01.405Z,12.70
2017-08-10T10:28:28.128Z,13.83
2017-08-10T10:30:54.868Z,15.30
2017-08-10T10:33:21.588Z,20.67
2017-08-10T10:35:48.345Z,15.90
2017-08-10T10:38:15.070Z,16.53
2017-08-10T10:40:41.822Z,17.10
2017-08-10T10:43:08.576Z,19.70
2017-08-10T10:45:35.378Z,17.77
2017-08-10T10:48:02.108Z,18.53
2017-08-10T10:50:28.845Z,20.57
2017-08-10T10:52:55.700Z,20.13
2017-08-10T10:55:22.494Z,14.17
2017-08-10T10:57:49.221Z,14.70
2017-08-10T11:00:15.952Z,13.73
2017-08-10T11:02:42.676Z,14.40
2017-08-10T11:05:09.440Z,12.20
2017-08-10T11:07:36.206Z,12.47
2017-08-10T11:10:02.956Z,13.57
2017-08-10T11:12:29.676Z,12.17
2017-08-10T11:14:56.440Z,12.57
2017-08-10T11:17:23.198Z,13.80
2017-08-10T11:19:49.938Z,17.07
2017-08-10T11:22:16.680Z,18.23
2017-08-10T11:24:43.397Z,15.57
2017-08-10T11:27:10.202Z,13.57
2017-08-10T11:29:36.950Z,14.90
2017-08-10T11:32:03.715Z,15.37
2017-08-10T11:34:30.525Z,15.60
2017-08-10T11:36:57.330Z,15.40
2017-08-10T11:39:24.063Z,14.37
2017-08-10T11:41:50.827Z,14.30
2017-08-10T11:44:17.597Z,14.57
2017-08-10T11:46:44.331Z,14.77
2017-08-10T11:49:11.135Z,13.07
2017-08-10T11:51:37.935Z,14.40
2017-08-10T11:54:04.685Z,15.37
2017-08-10T11:56:31.455Z,15.27
2017-08-10T11:58:58.206Z,15.73
2017-08-10T12:01:24.973Z,13.80
2017-08-10T12:03:51.696Z,15.77
2017-08-10T12:06:18.470Z,15.97
2017-08-10T12:08:45.219Z,14.80
2017-08-10T12:11:11.960Z,15.77
2017-08-10T12:13:38.694Z,18.73
2017-08-10T12:16:05.435Z,19.83
2017-08-10T12:18:32.176Z,15.63
2017-08-10T12:20:58.964Z,16.87
2017-08-10T12:23:25.717Z,14.87
2017-08-10T12:25:52.458Z,17.53
2017-08-10T12:28:19.204Z,15.77
2017-08-10T12:30:45.927Z,16.77
2017-08-10T12:33:12.687Z,17.23
2017-08-10T12:35:39.423Z,15.80
2017-08-10T12:38:06.177Z,16.20
2017-08-10T12:40:32.922Z,19.90
2017-08-10T12:42:59.693Z,19.53
2017-08-10T12:45:26.422Z,21.10
2017-08-10T12:47:53.226Z,21.97
2017-08-10T12:50:20.050Z,19.40
2017-08-10T12:52:46.861Z,20.43
2017-08-10T12:55:13.586Z,16.27
2017-08-10T12:57:40.346Z,16.60
2017-08-10T13:00:07.154Z,16.50
2017-08-10T13:02:33.925Z,14.47
2017-08-10T13:05:00.656Z,14.17
2017-08-10T13:07:27.392Z,13.80
2017-08-10T13:09:54.118Z,14.70
2017-08-10T13:12:20.879Z,13.80
2017-08-10T13:14:47.616Z,14.33
2017-08-10T13:17:14.361Z,17.27
2017-08-10T13:19:41.106Z,16.43
2017-08-10T13:22:07.842Z,16.50
2017-08-10T13:24:34.575Z,13.97
2017-08-10T13:27:01.306Z,15.77
2017-08-10T13:29:28.060Z,15.67
2017-08-10T13:31:54.808Z,14.63
2017-08-10T13:34:21.542Z,14.83
2017-08-10T13:36:48.310Z,15.93
2017-08-10T13:39:15.034Z,19.57
2017-08-10T13:41:41.786Z,15.57
2017-08-10T13:44:08.507Z,15.07
2017-08-10T13:46:35.263Z,15.00
2017-08-10T13:49:01.999Z,16.27
2017-08-10T13:51:28.740Z,15.30
2017-08-10T13:53:55.473Z,16.37
2017-08-10T13:56:22.221Z,15.27
2017-08-10T13:58:48.943Z,13.63
2017-08-10T14:01:15.701Z,13.13
2017-08-10T14:03:42.457Z,13.30
2017-08-10T14:06:09.188Z,13.60
2017-08-10T14:08:35.933Z,12.70
2017-08-10T14:11:02.684Z,15.30
2017-08-10T14:13:29.408Z,17.70
2017-08-10T14:15:56.155Z,18.67
2017-08-10T14:18:22.871Z,14.00
2017-08-10T14:20:49.599Z,16.67
2017-08-10T14:23:16.344Z,14.37
2017-08-10T14:25:43.077Z,13.30
2017-08-10T14:28:09.831Z,12.20
2017-08-10T14:30:36.563Z,13.40
2017-08-10T14:33:03.320Z,13.50
2017-08-10T14:35:30.148Z,14.37
2017-08-10T14:37:56.912Z,13.80
2017-08-10T14:40:23.667Z,14.60
2017-08-10T14:45:23.714Z,18.23
2017-08-10T14:47:50.458Z,14.10
2017-08-10T14:50:17.201Z,15.03
2017-08-10T14:52:43.940Z,17.73
2017-08-10T14:55:10.674Z,19.40
2017-08-10T14:57:37.427Z,16.70
2017-08-10T15:00:04.182Z,13.93
2017-08-10T15:02:31.111Z,18.53
2017-08-10T15:04:57.859Z,15.47
2017-08-10T15:07:24.704Z,16.80
2017-08-10T15:09:51.809Z,16.60
2017-08-10T15:12:18.660Z,14.50
2017-08-10T15:14:45.408Z,15.13
2017-08-10T15:17:12.235Z,12.70
2017-08-10T15:19:38.972Z,13.67
2017-08-10T15:22:05.709Z,13.87
2017-08-10T15:24:32.426Z,14.97
2017-08-10T15:26:59.152Z,12.90
2017-08-10T15:29:25.906Z,11.90
2017-08-10T15:31:52.638Z,14.80
2017-08-10T15:34:19.383Z,15.33
2017-08-10T15:36:46.127Z,13.40
2017-08-10T15:39:12.872Z,13.50
2017-08-10T15:41:39.634Z,15.10
2017-08-10T15:44:06.374Z,14.00
2017-08-10T15:46:33.093Z,12.40
2017-08-10T15:48:59.876Z,15.37
2017-08-10T15:51:26.648Z,12.93
2017-08-10T15:53:53.365Z,12.63
2017-08-10T15:56:20.129Z,16.97
2017-08-10T15:58:46.924Z,16.80
2017-08-10T16:01:13.663Z,15.40
2017-08-10T16:03:40.406Z,14.87
2017-08-10T16:06:07.153Z,15.37
2017-08-10T16:08:33.995Z,18.77
2017-08-10T16:11:00.723Z,15.57
2017-08-10T16:13:27.487Z,15.90
2017-08-10T16:15:54.205Z,12.30
2017-08-10T16:18:20.955Z,11.77
2017-08-10T16:20:47.695Z,14.97
2017-08-10T16:23:14.439Z,12.60
2017-08-10T16:25:41.271Z,13.17
2017-08-10T16:28:08.019Z,13.87
2017-08-10T16:30:34.747Z,13.77
2017-08-10T16:33:01.604Z,15.20
2017-08-10T16:35:28.342Z,17.63
2017-08-10T16:37:55.284Z,12.10
2017-08-10T16:40:22.015Z,14.47
2017-08-10T16:42:48.787Z,14.13
2017-08-10T16:45:15.581Z,12.40
2017-08-10T16:47:42.320Z,18.30
2017-08-10T16:50:09.094Z,13.37
2017-08-10T16:52:35.854Z,15.43
2017-08-10T16:55:02.598Z,14.53
2017-08-10T16:57:29.395Z,13.73
2017-08-10T16:59:56.142Z,15.00
2017-08-10T17:02:22.877Z,14.73
2017-08-10T17:04:49.637Z,15.40
2017-08-10T17:07:16.388Z,11.60
2017-08-10T17:09:43.188Z,13.57
2017-08-10T17:12:10.031Z,15.13
2017-08-10T17:14:36.930Z,18.30
2017-08-10T17:17:03.663Z,15.60
2017-08-10T17:19:30.416Z,15.47
2017-08-10T17:21:57.235Z,18.77
2017-08-10T17:24:23.968Z,15.40
2017-08-10T17:26:50.692Z,15.83
2017-08-10T17:29:17.447Z,16.30
2017-08-10T17:31:44.198Z,17.10
2017-08-10T17:34:10.932Z,16.03
2017-08-10T17:36:37.681Z,15.70
2017-08-10T17:39:04.447Z,15.43
2017-08-10T17:41:31.180Z,15.80
2017-08-10T17:43:57.924Z,17.13
2017-08-10T17:46:24.661Z,16.43
2017-08-10T17:48:51.419Z,16.57
2017-08-10T17:51:18.171Z,15.60
2017-08-10T17:53:44.971Z,16.70
2017-08-10T17:56:11.763Z,9.67
2017-08-10T17:58:38.505Z,15.37
2017-08-10T18:01:05.307Z,13.67
2017-08-10T18:03:32.052Z,15.20
2017-08-10T18:05:58.862Z,13.67
2017-08-10T18:08:25.605Z,16.07
2017-08-10T18:10:52.345Z,18.50
2017-08-10T18:13:19.093Z,13.07
2017-08-10T18:15:45.828Z,13.30
2017-08-10T18:18:12.570Z,13.33
2017-08-10T18:20:39.304Z,12.30
2017-08-10T18:23:06.196Z,15.33
2017-08-10T18:25:32.964Z,11.97
2017-08-10T18:27:59.707Z,18.40
2017-08-10T18:30:26.469Z,14.17
2017-08-10T18:32:53.194Z,12.93
2017-08-10T18:35:19.952Z,15.63
2017-08-10T18:37:46.681Z,13.80
2017-08-10T18:40:13.446Z,14.90
2017-08-10T18:42:40.189Z,13.60
2017-08-10T18:45:06.991Z,13.13
2017-08-10T18:47:33.754Z,14.23
2017-08-10T18:50:00.504Z,14.67
2017-08-10T18:52:27.230Z,15.73
2017-08-10T18:54:54.102Z,14.40
2017-08-10T18:57:20.884Z,11.63
2017-08-10T18:59:47.630Z,16.40
2017-08-10T19:02:14.439Z,16.13
2017-08-10T19:04:41.413Z,14.50
2017-08-10T19:07:08.350Z,14.80
2017-08-10T19:09:35.152Z,14.70
2017-08-10T19:12:02.031Z,17.40
2017-08-10T19:14:28.817Z,12.97
2017-08-10T19:16:55.857Z,15.20
2017-08-10T19:19:22.907Z,13.87
2017-08-10T19:21:50.641Z,17.83
2017-08-10T19:24:17.610Z,11.50
2017-08-10T19:26:44.623Z,11.40
2017-08-10T19:29:11.762Z,13.20
2017-08-10T19:31:38.775Z,14.70
2017-08-10T19:34:06.000Z,11.53
2017-08-10T19:36:33.190Z,11.43
2017-08-10T19:39:01.321Z,9.53
2017-08-10T19:41:28.424Z,11.87
2017-08-10T19:43:55.621Z,13.80
2017-08-10T19:49:40.084Z,8.00
2017-08-10T19:58:05.268Z,10.43
2017-08-10T20:00:32.285Z,9.10
2017-08-10T20:02:59.273Z,8.33
2017-08-10T20:05:26.127Z,8.77
2017-08-10T20:07:53.118Z,8.40
2017-08-10T20:10:20.042Z,9.93
2017-08-10T20:12:46.863Z,9.53
2017-08-10T20:15:13.607Z,9.63
2017-08-10T20:17:40.426Z,10.40
2017-08-10T20:20:07.290Z,8.30
2017-08-10T20:22:34.332Z,9.07
2017-08-10T20:25:01.138Z,8.70
2017-08-10T20:27:28.238Z,10.93
2017-08-10T20:29:55.352Z,9.33
2017-08-10T20:32:22.155Z,12.27
2017-08-10T20:34:48.897Z,8.07
2017-08-10T20:37:15.712Z,8.00
2017-08-10T20:39:42.472Z,9.20
2017-08-10T20:42:09.206Z,8.40
2017-08-10T20:44:35.952Z,7.53
2017-08-10T20:47:02.702Z,14.90
2017-08-10T20:49:29.448Z,8.37
2017-08-10T20:51:56.184Z,7.27
2017-08-10T20:54:22.935Z,8.63
2017-08-10T20:56:49.683Z,9.30
2017-08-10T20:59:16.402Z,8.87
2017-08-10T21:01:43.150Z,10.87
2017-08-10T21:04:09.889Z,10.40
2017-08-10T21:06:36.632Z,8.03
2017-08-10T21:09:03.419Z,8.47
2017-08-10T21:11:30.172Z,11.00
2017-08-10T21:13:56.906Z,9.40
2017-08-10T21:16:23.646Z,12.37
2017-08-10T21:18:50.364Z,9.63
2017-08-10T21:21:17.108Z,9.73
2017-08-10T21:23:43.820Z,11.77
2017-08-10T21:26:10.538Z,8.43
2017-08-10T21:28:37.294Z,11.00
2017-08-10T21:31:04.028Z,10.90
2017-08-10T21:33:30.752Z,10.17
2017-08-10T21:35:57.474Z,10.60
2017-08-10T21:38:24.196Z,13.37
2017-08-10T21:40:50.937Z,15.97
2017-08-10T21:43:17.667Z,9.67
2017-08-10T21:45:44.393Z,7.77
2017-08-10T21:48:11.117Z,14.87
2017-08-10T21:50:37.840Z,9.37
2017-08-10T21:53:04.599Z,9.27
2017-08-10T21:55:31.328Z,12.07
2017-08-10T21:57:58.055Z,8.90
2017-08-10T22:00:24.816Z,10.50
2017-08-10T22:02:51.555Z,10.03
2017-08-10T22:05:18.304Z,12.23
2017-08-10T22:07:45.056Z,9.30
2017-08-10T22:10:11.784Z,11.90
2017-08-10T22:12:38.521Z,9.27
2017-08-10T22:15:05.269Z,7.47
2017-08-10T22:17:32.003Z,9.30
2017-08-10T22:19:58.739Z,8.17
2017-08-10T22:22:25.463Z,7.27
2017-08-10T22:24:52.185Z,9.00
2017-08-10T22:27:18.902Z,9.63
2017-08-10T22:29:45.632Z,9.40
2017-08-10T22:32:12.376Z,7.33
2017-08-10T22:34:39.098Z,6.93
2017-08-10T22:37:05.854Z,8.87
2017-08-10T22:39:32.571Z,6.83
2017-08-10T22:41:59.284Z,7.23
2017-08-10T22:44:26.025Z,8.43
2017-08-10T22:46:52.761Z,9.30
2017-08-10T22:49:19.466Z,8.40
2017-08-10T22:51:46.202Z,6.83
2017-08-10T22:54:12.928Z,6.50
2017-08-10T22:56:39.638Z,9.70
2017-08-10T22:59:06.352Z,6.00
2017-08-10T23:01:33.147Z,9.53
2017-08-10T23:03:59.872Z,6.50
2017-08-10T23:06:26.612Z,7.17
2017-08-10T23:08:53.333Z,7.47
2017-08-10T23:11:20.072Z,10.20
2017-08-10T23:13:46.807Z,6.13
2017-08-10T23:16:13.542Z,6.10
2017-08-10T23:18:40.259Z,6.47
2017-08-10T23:21:06.974Z,5.90
2017-08-10T23:23:33.685Z,7.50
2017-08-10T23:26:00.507Z,11.57
2017-08-10T23:28:27.257Z,14.30
2017-08-10T23:30:53.993Z,6.17
2017-08-10T23:33:20.711Z,9.70
2017-08-10T23:35:47.440Z,9.63
2017-08-10T23:38:14.167Z,5.83
2017-08-10T23:40:40.878Z,6.20
2017-08-10T23:43:07.625Z,7.97
2017-08-10T23:45:34.356Z,5.73
2017-08-10T23:48:01.106Z,7.60
2017-08-10T23:50:27.838Z,6.83
2017-08-10T23:52:54.546Z,7.77
2017-08-10T23:55:21.268Z,5.30
2017-08-10T23:57:47.984Z,6.20
